Aggersund, Denmark

3:27 PM CEST on August 20, 2014 (GMT +0200)
Halvrimmen | Change Station
CLOSE
Current Station
Personal Weather Station
Location: Brovst, JYLLAND
Elevation: 13 ft
Nearby Weather Stations

Elev 13 ft 57.12 °N, 9.59 °E | Updated 2 minutes ago

Scattered Clouds
Scattered Clouds
61.7 °F
Feels Like 61.7 °F
N
23.0
Wind Variable Wind from WSW
Gusts 33.0 mph

Today
High -- | Low -- °F
--% Chance of Precip.
Yesterday
High -- | Low -- °F
Precip. -- in
5:59 AM 8:51 PM
Waning Crescent, 21% visible
Pressure 29.62 in
Visibility 6.2 miles
Clouds Scattered Clouds 2500 ft
Dew Point 53 °F
Humidity 74%
Rainfall 0.12 in
Snow Depth Not available.
UV 3.8 out of 12
Pollen Not available.
Air Quality Not available.
Flu Activity Not available.
METAR EKYT 201320Z 26024KT 9999 SCT025TCU 17/12 Q1003

More Conditions Fewer Conditions

Pressure 29.62 in
Visibility 6.2 miles
Clouds Scattered Clouds 2500 ft
Dew Point 53 °F
Humidity 74%
Rainfall 0.12 in
Snow Depth Not available.
UV 3.8 out of 12
Pollen Not available.
Air Quality Not available.
Flu Activity Not available.
METAR EKYT 201320Z 26024KT 9999 SCT025TCU 17/12 Q1003

More Conditions Fewer Conditions

10-Day Weather Forecast

Almanac

Astronomy

Aug. 20, 2014 Rise Set
Actual Time 5:59 AM CEST 8:51 PM CEST
Civil Twilight 5:16 AM CEST 9:34 PM CEST
Nautical Twilight 4:17 AM CEST 10:32 PM CEST
Astronomical Twilight 2:56 AM CEST 11:50 PM CEST
Moon 1:03 AM CEST 5:45 PM CEST
Length of Visible Light 16h 18m
Length of Day
14h 51m
Tomorrow will be 4m 36s shorter.
Waning Crescent, 21% of the Moon is Illuminated
Today
Waning Crescent
Aug 25
New
Sep 2
First Quarter
Sep 8
Full
Sep 15
Last Quarter

Yesterday's Extremes

Country Highs Country Lows

Community

WunderPhotos

Upload Photos

1,745,623 photos uploaded!

WunderBlogs® & News

By Dr. Jeff Masters
Director of Meteorology, Weather Underground
By Kari Strenfel
Meteorologist, Weather Underground
By Christopher C. Burt
Weather Historian, Weather Underground
August 20, 2014
August 20, 2014
August 20, 2014

Nearby

Snow Depth

Not available.

Earthquake Activity

City Distance Mag. Time & Date
No recent earthquake activity has been reported nearby.
Minimum magnitude displayed is 2.5.

Coastal Water Temperatures

Place Temperature
No Stations Reporting

Nearby Weather Stations